Time;durP1;ratioP1;P1;durP2;ratioP2;P2;SDS_P1;SDS_P2;PMS_P1;PMS_P2;Temp;Humidity;BMP_temperature;BMP_pressure;BME280_temperature;BME280_humidity;BME280_pressure;Samples;Min_cycle;Max_cycle;Signal;HPM_P1;HPM_P2
2022/08/21 00:00:37;;;;;;;4.22;1.80;;;;;;;18.59;69.84;92982.88;2017372;71;20237;-73
2022/08/21 00:03:06;;;;;;;1.95;1.40;;;;;;;18.54;70.11;92968.47;2013883;71;20399;-73
2022/08/21 00:05:33;;;;;;;1.83;1.73;;;;;;;18.47;70.46;92974.63;2017338;71;20153;-75
2022/08/21 00:07:59;;;;;;;2.78;1.50;;;;;;;18.32;71.46;92966.94;2017250;71;20703;-73
2022/08/21 00:10:25;;;;;;;2.47;1.60;;;;;;;18.34;70.71;92961.31;2017654;71;20181;-74
2022/08/21 00:12:52;;;;;;;2.88;1.40;;;;;;;18.48;67.99;92968.25;2013827;71;20161;-73
2022/08/21 00:15:26;;;;;;;2.58;1.20;;;;;;;18.39;69.39;92963.66;2017465;71;20204;-74
2022/08/21 00:17:53;;;;;;;1.30;1.13;;;;;;;18.28;69.77;92967.53;2017395;71;20162;-74
2022/08/21 00:20:19;;;;;;;1.52;1.13;;;;;;;18.35;68.89;92954.22;2017554;71;20641;-74
2022/08/21 00:22:46;;;;;;;2.50;1.10;;;;;;;18.26;70.47;92964.59;2017436;71;20638;-73
2022/08/21 00:25:13;;;;;;;3.08;1.20;;;;;;;18.24;69.64;92956.00;2011295;71;20161;-73
2022/08/21 00:27:41;;;;;;;1.20;1.10;;;;;;;18.22;69.39;92955.91;2017275;71;20169;-73
2022/08/21 00:30:08;;;;;;;2.47;1.10;;;;;;;18.10;70.50;92959.03;2017443;71;20186;-72
2022/08/21 00:32:36;;;;;;;4.00;1.30;;;;;;;18.08;69.54;92964.66;2017121;71;20511;-77
2022/08/21 00:35:04;;;;;;;3.15;1.20;;;;;;;18.04;70.13;92968.06;2017540;71;20211;-74
2022/08/21 00:37:30;;;;;;;3.05;1.40;;;;;;;18.00;70.51;92956.53;2017476;71;20166;-73
2022/08/21 00:39:56;;;;;;;2.60;1.40;;;;;;;17.94;70.54;92961.28;2017593;71;20165;-74
2022/08/21 00:42:23;;;;;;;4.03;1.27;;;;;;;17.99;69.64;92962.88;2017654;71;20193;-73
2022/08/21 00:44:51;;;;;;;5.95;1.50;;;;;;;17.89;70.30;92962.50;2017619;71;20642;-74
2022/08/21 00:47:18;;;;;;;4.43;1.45;;;;;;;17.85;70.41;92965.22;2016991;71;20154;-73
2022/08/21 00:49:45;;;;;;;1.30;1.20;;;;;;;17.88;70.19;92950.41;2017380;71;20166;-73
2022/08/21 00:52:15;;;;;;;7.18;1.55;;;;;;;17.82;69.72;92955.84;2017489;71;20193;-73
2022/08/21 00:54:41;;;;;;;3.72;1.67;;;;;;;17.81;70.33;92953.66;2017315;71;20165;-74
2022/08/21 00:57:13;;;;;;;3.78;1.90;;;;;;;17.62;72.51;92955.03;2017137;71;20197;-74
2022/08/21 00:59:43;;;;;;;7.15;2.40;;;;;;;17.82;70.49;92955.84;2016780;71;20172;-74
2022/08/21 01:02:09;;;;;;;5.32;1.73;;;;;;;17.74;70.77;92953.44;2017119;71;20652;-75
2022/08/21 01:04:35;;;;;;;3.00;1.95;;;;;;;17.72;70.05;92950.47;2016694;71;20161;-75
2022/08/21 01:07:01;;;;;;;3.67;2.10;;;;;;;17.73;70.41;92949.13;2017401;71;20822;-74
2022/08/21 01:09:27;;;;;;;4.80;2.60;;;;;;;17.70;69.79;92950.41;2013811;71;20652;-74
2022/08/21 01:11:53;;;;;;;6.60;2.13;;;;;;;17.64;70.77;92955.13;2016742;71;20197;-75
2022/08/21 01:14:19;;;;;;;4.72;1.70;;;;;;;17.66;69.83;92950.25;2017260;71;20523;-73
2022/08/21 01:16:49;;;;;;;5.03;1.83;;;;;;;17.52;71.61;92953.28;2017375;71;20169;-73
2022/08/21 01:19:18;;;;;;;6.07;2.03;;;;;;;17.46;71.21;92943.78;2017376;71;20705;-76
2022/08/21 01:21:43;;;;;;;4.85;1.83;;;;;;;17.31;71.80;92944.56;2014191;71;20153;-73
2022/08/21 01:24:10;;;;;;;4.32;1.98;;;;;;;17.41;71.14;92948.56;2017857;71;20164;-73
2022/08/21 01:26:36;;;;;;;6.22;1.80;;;;;;;17.09;73.19;92950.84;2017699;71;20264;-76
2022/08/21 01:29:11;;;;;;;3.60;1.88;;;;;;;17.24;71.36;92947.19;2017565;71;20142;-73
2022/08/21 01:31:38;;;;;;;5.10;1.80;;;;;;;17.38;70.35;92952.00;2017676;71;20177;-74
2022/08/21 01:34:07;;;;;;;2.40;1.70;;;;;;;17.29;70.75;92948.09;2017518;71;20249;-74
2022/08/21 01:36:33;;;;;;;2.45;1.70;;;;;;;17.40;69.66;92944.25;2017420;71;20239;-73
2022/08/21 01:39:03;;;;;;;3.20;1.52;;;;;;;17.23;71.47;92939.31;2017955;71;20621;-73
2022/08/21 01:41:29;;;;;;;7.07;1.50;;;;;;;17.38;70.11;92934.91;2017621;71;20256;-73
2022/08/21 01:43:55;;;;;;;3.72;1.40;;;;;;;17.48;70.10;92941.72;2017549;71;20881;-73
2022/08/21 01:46:20;;;;;;;3.15;1.30;;;;;;;17.38;70.82;92943.44;2017440;71;20266;-75
2022/08/21 01:48:47;;;;;;;5.35;1.50;;;;;;;17.41;70.41;92942.88;2017729;71;20181;-72
2022/08/21 01:51:13;;;;;;;3.50;1.70;;;;;;;17.35;71.04;92944.75;2013832;71;20618;-74
2022/08/21 01:53:39;;;;;;;2.90;1.33;;;;;;;17.34;70.60;92946.84;2017586;71;20156;-74
2022/08/21 01:56:09;;;;;;;5.25;1.60;;;;;;;17.28;71.43;92940.94;2017465;71;20284;-73
2022/08/21 01:58:36;;;;;;;4.07;1.70;;;;;;;17.20;72.47;92937.75;2017731;71;20522;-73
2022/08/21 02:01:03;;;;;;;3.63;1.58;;;;;;;17.27;71.06;92942.31;2017774;71;20149;-74
2022/08/21 02:03:29;;;;;;;2.80;1.48;;;;;;;17.34;71.17;92949.72;2017446;71;20250;-75
2022/08/21 02:05:55;;;;;;;2.72;1.67;;;;;;;17.33;70.55;92939.72;2017591;71;20186;-74
2022/08/21 02:08:24;;;;;;;4.45;1.40;;;;;;;17.27;71.95;92940.22;2017778;71;20169;-74
2022/08/21 02:10:51;;;;;;;1.55;1.40;;;;;;;17.30;71.02;92938.16;2017440;71;20146;-73
2022/08/21 02:13:17;;;;;;;5.63;1.55;;;;;;;17.35;71.50;92930.50;2017498;71;20630;-75
2022/08/21 02:15:43;;;;;;;5.07;1.40;;;;;;;17.25;70.88;92930.84;2014219;71;20534;-74
2022/08/21 02:18:09;;;;;;;3.67;1.40;;;;;;;17.32;71.49;92929.72;2017777;71;20623;-73
2022/08/21 02:20:38;;;;;;;3.05;1.40;;;;;;;17.33;71.07;92931.19;2017581;71;20152;-74
2022/08/21 02:23:05;;;;;;;3.67;1.45;;;;;;;17.43;69.30;92922.31;2017691;71;20220;-73
2022/08/21 02:25:31;;;;;;;2.83;1.45;;;;;;;17.37;70.61;92922.81;2017683;71;20161;-73
2022/08/21 02:28:04;;;;;;;4.30;1.63;;;;;;;17.36;71.16;92924.16;2017639;71;20154;-74
2022/08/21 02:30:33;;;;;;;3.42;1.40;;;;;;;17.33;71.90;92928.31;2017592;71;20173;-74
2022/08/21 02:32:59;;;;;;;3.13;1.70;;;;;;;17.24;72.38;92923.69;2017542;71;20298;-73
2022/08/21 02:35:26;;;;;;;6.63;1.60;;;;;;;17.10;71.86;92929.56;2017564;71;20273;-74
2022/08/21 02:37:59;;;;;;;4.28;1.45;;;;;;;17.04;73.07;92923.59;2017491;71;20530;-72
2022/08/21 02:40:28;;;;;;;3.90;1.60;;;;;;;17.23;72.30;92925.81;2017372;71;20181;-73
2022/08/21 02:42:54;;;;;;;3.72;1.58;;;;;;;17.33;70.64;92928.31;2017324;71;20491;-75
2022/08/21 02:45:20;;;;;;;6.88;1.88;;;;;;;17.18;72.84;92924.19;2017474;71;20169;-73
2022/08/21 02:47:58;;;;;;;2.70;1.40;;;;;;;17.23;70.98;92925.81;2017454;71;20154;-75
2022/08/21 02:50:29;;;;;;;3.83;1.20;;;;;;;17.33;70.58;92925.50;2017499;71;20669;-73
2022/08/21 02:52:55;;;;;;;1.80;1.70;;;;;;;17.34;70.50;92929.06;2017247;71;20141;-74
2022/08/21 02:55:23;;;;;;;1.80;1.30;;;;;;;17.30;71.81;92923.94;2017385;71;20165;-73
2022/08/21 02:57:49;;;;;;;4.30;1.30;;;;;;;17.38;71.07;92923.53;2017303;71;20265;-75
2022/08/21 03:00:15;;;;;;;2.03;1.40;;;;;;;17.36;71.43;92921.31;2017206;71;20314;-75
2022/08/21 03:02:41;;;;;;;1.83;1.40;;;;;;;17.39;71.70;92931.41;2017518;71;20189;-74
2022/08/21 03:05:09;;;;;;;3.00;1.40;;;;;;;17.42;71.58;92921.56;2017732;71;20181;-73
2022/08/21 03:07:37;;;;;;;1.80;1.40;;;;;;;17.43;70.98;92919.47;2017537;71;20234;-73
2022/08/21 03:10:04;;;;;;;2.67;1.50;;;;;;;17.41;71.68;92917.28;2014139;71;20154;-73
2022/08/21 03:12:29;;;;;;;2.10;1.35;;;;;;;17.28;72.03;92907.53;2017677;71;20161;-72
2022/08/21 03:14:55;;;;;;;1.50;1.40;;;;;;;17.18;72.07;92904.28;2017477;71;20603;-74
2022/08/21 03:17:21;;;;;;;3.50;1.25;;;;;;;17.24;71.27;92907.34;2017750;71;20585;-75
2022/08/21 03:19:46;;;;;;;3.78;1.35;;;;;;;17.30;70.83;92904.03;2017600;71;20307;-75
2022/08/21 03:22:13;;;;;;;3.20;1.50;;;;;;;17.17;72.01;92907.75;2017680;71;20153;-75
2022/08/21 03:24:38;;;;;;;3.63;1.40;;;;;;;17.22;71.29;92898.72;2017625;71;20235;-76
2022/08/21 03:27:04;;;;;;;2.28;1.35;;;;;;;17.09;71.91;92911.03;2017864;71;20169;-75
2022/08/21 03:29:30;;;;;;;3.03;1.45;;;;;;;16.89;73.17;92916.63;2018060;71;20150;-75
2022/08/21 03:31:55;;;;;;;3.28;1.40;;;;;;;16.96;72.52;92923.28;2018211;71;20177;-76
2022/08/21 03:34:21;;;;;;;2.15;1.38;;;;;;;16.97;72.49;92910.53;2014650;71;20150;-76
2022/08/21 03:36:48;;;;;;;2.70;1.40;;;;;;;17.05;70.90;92919.41;2018201;71;20657;-73
2022/08/21 03:39:15;;;;;;;5.70;1.60;;;;;;;16.96;71.83;92915.50;2018011;71;20161;-74
2022/08/21 03:41:41;;;;;;;3.40;1.70;;;;;;;16.94;71.16;92915.41;2014491;71;20142;-76
2022/08/21 03:44:07;;;;;;;4.47;1.60;;;;;;;17.10;70.06;92911.75;2014458;71;20588;-74
2022/08/21 03:46:33;;;;;;;3.17;1.50;;;;;;;16.76;71.96;92914.66;2018255;71;20161;-72
2022/08/21 03:48:58;;;;;;;4.90;1.80;;;;;;;16.80;71.76;92922.63;2017932;71;20269;-73
2022/08/21 03:51:24;;;;;;;5.03;2.20;;;;;;;16.98;69.48;92912.00;2017936;71;20519;-76
2022/08/21 03:53:49;;;;;;;6.05;2.20;;;;;;;16.84;71.11;92920.69;2018052;71;20467;-73
2022/08/21 03:56:16;;;;;;;3.55;1.65;;;;;;;16.79;70.92;92916.22;2018121;71;20519;-75
2022/08/21 03:58:42;;;;;;;3.13;1.48;;;;;;;16.60;72.08;92908.28;2017900;71;20150;-73
2022/08/21 04:01:07;;;;;;;3.63;1.45;;;;;;;16.74;70.53;92917.41;2016778;71;20169;-73
2022/08/21 04:03:35;;;;;;;2.97;1.40;;;;;;;16.68;71.24;92909.34;2017054;71;20154;-73
2022/08/21 04:06:01;;;;;;;2.75;1.60;;;;;;;16.63;71.67;92921.19;2014024;71;20160;-73
2022/08/21 04:08:27;;;;;;;3.08;1.33;;;;;;;16.60;71.20;92922.50;2017505;71;20181;-74
2022/08/21 04:10:58;;;;;;;2.42;1.40;;;;;;;16.69;70.02;92916.50;2017521;71;20232;-73
2022/08/21 04:13:23;;;;;;;4.10;2.10;;;;;;;16.64;71.23;92925.50;2018005;71;20206;-73
2022/08/21 04:15:49;;;;;;;2.97;1.65;;;;;;;16.65;70.86;92922.00;2017775;71;20495;-72
2022/08/21 04:18:15;;;;;;;5.97;1.60;;;;;;;16.58;71.05;92925.97;2018214;71;20253;-74
2022/08/21 04:20:43;;;;;;;2.88;1.45;;;;;;;16.54;71.14;92925.81;2017761;71;20576;-73
2022/08/21 04:23:08;;;;;;;2.95;1.55;;;;;;;16.37;72.49;92932.16;2018043;71;20576;-73
2022/08/21 04:25:35;;;;;;;4.32;1.50;;;;;;;16.48;71.06;92926.25;2018006;71;20173;-73
2022/08/21 04:28:01;;;;;;;3.13;1.38;;;;;;;16.49;71.47;92933.44;2017815;71;20216;-73
2022/08/21 04:30:28;;;;;;;5.55;1.70;;;;;;;16.58;70.10;92934.47;2017980;71;20583;-73
2022/08/21 04:32:54;;;;;;;3.58;1.52;;;;;;;16.45;71.61;92935.38;2017857;71;20153;-74
2022/08/21 04:35:22;;;;;;;4.45;1.38;;;;;;;16.40;71.30;92937.31;2018063;71;20170;-72
2022/08/21 04:37:49;;;;;;;3.92;1.52;;;;;;;16.32;72.02;92933.38;2017621;71;20177;-74
2022/08/21 04:40:16;;;;;;;7.13;1.58;;;;;;;16.23;71.78;92933.03;2017758;71;20188;-73
2022/08/21 04:42:51;;;;;;;5.95;1.73;;;;;;;16.41;70.72;92935.91;2014311;71;20181;-75
2022/08/21 04:45:31;;;;;;;4.03;1.48;;;;;;;16.28;71.94;92939.59;2018022;71;20596;-75
2022/08/21 04:47:58;;;;;;;24.15;2.33;;;;;;;16.14;73.20;92942.56;2014491;71;20242;-75
2022/08/21 04:51:02;;;;;;;2.45;1.60;;;;;;;16.30;71.47;92948.22;2017780;71;20170;-74
2022/08/21 04:53:49;;;;;;;3.20;1.27;;;;;;;16.04;73.16;92953.47;2018016;71;20141;-75
2022/08/21 04:56:21;;;;;;;4.10;1.50;;;;;;;16.08;73.25;92950.81;2017838;71;20242;-75
2022/08/21 04:58:49;;;;;;;5.63;1.63;;;;;;;15.89;73.54;92946.41;2017561;71;20398;-74
2022/08/21 05:01:18;;;;;;;7.32;2.28;;;;;;;16.12;72.16;92950.97;2017865;71;20154;-75
2022/08/21 05:03:48;;;;;;;2.65;2.30;;;;;;;16.15;71.95;92963.16;2017912;71;20166;-73
2022/08/21 05:06:15;;;;;;;3.25;2.10;;;;;;;16.08;72.13;92961.41;2018066;71;20169;-73
2022/08/21 05:08:43;;;;;;;2.55;1.80;;;;;;;16.14;71.98;92965.28;2018183;71;20225;-73
2022/08/21 05:11:09;;;;;;;3.92;1.65;;;;;;;16.21;70.62;92964.16;2015184;71;20596;-73
2022/08/21 05:13:35;;;;;;;3.47;1.70;;;;;;;16.06;71.73;92959.25;2015267;71;20157;-74
2022/08/21 05:16:01;;;;;;;5.85;1.70;;;;;;;16.12;71.41;92961.59;2019173;71;20162;-74
2022/08/21 05:18:26;;;;;;;3.42;1.50;;;;;;;15.98;72.67;92962.44;2016112;71;20605;-74
2022/08/21 05:20:52;;;;;;;4.15;1.55;;;;;;;16.02;72.16;92965.47;2019689;71;20978;-74
2022/08/21 05:23:17;;;;;;;4.22;1.80;;;;;;;16.04;72.24;92958.44;2016365;71;20162;-75
2022/08/21 05:25:43;;;;;;;3.58;2.05;;;;;;;16.04;72.54;92967.69;2016760;71;20603;-74
2022/08/21 05:28:10;;;;;;;6.65;1.67;;;;;;;16.06;72.00;92967.03;2018117;71;20189;-75
2022/08/21 05:30:37;;;;;;;3.35;1.90;;;;;;;16.10;70.88;92967.94;2017892;71;20255;-74
2022/08/21 05:33:04;;;;;;;3.35;2.05;;;;;;;15.92;72.68;92976.38;2017856;71;20149;-74
2022/08/21 05:35:32;;;;;;;5.47;2.33;;;;;;;15.99;72.63;92975.28;2017680;71;20182;-74
2022/08/21 05:37:58;;;;;;;6.53;1.70;;;;;;;16.02;72.40;92976.81;2017804;71;20184;-74
2022/08/21 05:40:24;;;;;;;2.97;1.80;;;;;;;16.02;72.15;92978.94;2017735;71;20154;-76
2022/08/21 05:42:52;;;;;;;4.57;1.73;;;;;;;16.10;71.53;92972.88;2011334;71;20174;-74
2022/08/21 05:45:17;;;;;;;3.80;1.75;;;;;;;16.26;69.61;92973.59;2017689;71;20217;-74
2022/08/21 05:47:43;;;;;;;2.25;1.80;;;;;;;16.19;70.60;92983.97;2017725;71;20189;-74
2022/08/21 05:50:09;;;;;;;3.67;1.92;;;;;;;16.07;71.55;92974.88;2017523;71;20242;-73
2022/08/21 05:52:35;;;;;;;4.07;2.13;;;;;;;16.25;70.32;92974.97;2017611;71;20158;-74
2022/08/21 05:55:00;;;;;;;1.50;1.40;;;;;;;16.12;71.84;92970.84;2017392;71;20149;-73
2022/08/21 05:57:26;;;;;;;3.33;2.00;;;;;;;16.11;71.53;92968.66;2017596;71;20260;-73
2022/08/21 05:59:52;;;;;;;3.63;2.08;;;;;;;16.31;69.57;92969.56;2017603;71;20158;-74
2022/08/21 06:02:19;;;;;;;4.50;2.28;;;;;;;16.18;69.83;92973.25;2013944;71;20248;-75
2022/08/21 06:04:45;;;;;;;8.65;6.35;;;;;;;16.21;70.81;92971.94;2017605;71;20170;-73
2022/08/21 06:07:11;;;;;;;11.02;5.43;;;;;;;16.27;70.27;92966.56;2017602;71;20254;-73
2022/08/21 06:09:37;;;;;;;12.77;6.68;;;;;;;16.25;71.41;92969.28;2017607;71;20181;-74
2022/08/21 06:12:06;;;;;;;10.65;8.23;;;;;;;16.32;69.66;92970.31;2014155;71;20230;-73
2022/08/21 06:14:32;;;;;;;21.02;10.95;;;;;;;16.22;71.99;92967.75;2017171;71;20512;-73
2022/08/21 06:17:10;;;;;;;17.38;11.15;;;;;;;16.14;72.64;92964.56;2014499;71;20552;-73
2022/08/21 06:19:37;;;;;;;10.90;7.50;;;;;;;16.01;73.80;92969.69;2017782;71;20154;-74
2022/08/21 06:22:06;;;;;;;6.90;5.00;;;;;;;15.99;73.27;92966.75;2016637;71;20166;-75
2022/08/21 06:24:33;;;;;;;7.90;5.50;;;;;;;16.10;72.98;92965.09;2014807;71;20637;-75
2022/08/21 06:27:05;;;;;;;7.15;5.82;;;;;;;16.24;72.87;92959.31;2017899;71;20298;-74
2022/08/21 06:29:32;;;;;;;9.38;5.20;;;;;;;16.35;71.49;92960.47;2017392;71;20158;-76
2022/08/21 06:31:57;;;;;;;7.38;5.55;;;;;;;16.38;70.68;92959.19;2017385;71;20189;-76
2022/08/21 06:34:23;;;;;;;12.20;5.85;;;;;;;16.36;71.91;92959.84;2018180;71;20157;-74
2022/08/21 06:36:49;;;;;;;6.50;5.35;;;;;;;16.35;72.72;92954.78;2018182;71;20158;-73
2022/08/21 06:39:14;;;;;;;5.05;4.50;;;;;;;16.32;71.74;92956.09;2017962;71;20158;-73
2022/08/21 06:41:40;;;;;;;9.30;5.40;;;;;;;16.41;72.25;92955.81;2014802;71;20142;-73
2022/08/21 06:44:06;;;;;;;7.88;4.25;;;;;;;16.57;70.43;92960.72;2017344;71;20702;-74
2022/08/21 06:46:32;;;;;;;10.07;4.15;;;;;;;16.35;73.31;92958.38;2012692;71;20150;-77
2022/08/21 06:49:01;;;;;;;6.43;4.30;;;;;;;16.48;72.32;92951.84;2016971;71;20256;-74
2022/08/21 06:51:30;;;;;;;10.32;4.10;;;;;;;16.63;70.12;92956.03;2017693;71;20299;-76
2022/08/21 06:53:56;;;;;;;7.55;3.50;;;;;;;16.53;71.96;92956.31;2014732;71;20236;-77
2022/08/21 06:56:21;;;;;;;21.48;5.82;;;;;;;16.64;72.61;92953.94;2018245;71;20165;-78
2022/08/21 06:58:47;;;;;;;17.75;7.43;;;;;;;16.65;72.83;92949.69;2018155;71;20165;-75
2022/08/21 07:01:12;;;;;;;8.82;4.00;;;;;;;16.77;71.01;92950.25;2016074;71;20145;-73
2022/08/21 07:03:40;;;;;;;12.63;5.75;;;;;;;16.91;69.63;92947.25;2017381;71;20494;-76
2022/08/21 07:06:08;;;;;;;9.80;4.63;;;;;;;16.76;72.08;92943.81;2016230;71;20189;-73
2022/08/21 07:08:36;;;;;;;5.35;2.60;;;;;;;16.75;72.65;92942.34;2018068;71;20224;-74
2022/08/21 07:11:11;;;;;;;5.43;2.97;;;;;;;16.82;72.15;92934.09;2017300;71;20146;-75
2022/08/21 07:13:37;;;;;;;2.50;2.00;;;;;;;16.81;72.32;92938.28;2013958;71;20235;-77
2022/08/21 07:16:05;;;;;;;1.90;1.55;;;;;;;16.93;71.52;92936.69;2017990;71;20162;-74
2022/08/21 07:18:31;;;;;;;1.67;1.30;;;;;;;16.92;72.15;92935.22;2017985;71;20624;-78
2022/08/21 07:20:57;;;;;;;2.47;1.10;;;;;;;16.86;72.88;92931.38;2018101;71;20276;-72
2022/08/21 07:23:35;;;;;;;1.50;1.20;;;;;;;16.92;73.85;92931.66;2018868;71;20642;-76
2022/08/21 07:26:00;;;;;;;1.20;1.10;;;;;;;17.11;73.95;92927.44;2017109;71;20934;-77
2022/08/21 07:28:27;;;;;;;1.20;1.10;;;;;;;17.51;73.25;92940.44;2017752;71;20150;-73
2022/08/21 07:30:56;;;;;;;3.30;1.90;;;;;;;17.78;76.40;92930.81;2018075;71;20577;-78
2022/08/21 07:33:23;;;;;;;3.22;1.95;;;;;;;18.11;75.72;92934.13;2018104;71;20252;-76
2022/08/21 07:35:48;;;;;;;2.53;1.90;;;;;;;18.34;74.25;92927.13;2017909;71;20214;-77
2022/08/21 07:38:15;;;;;;;3.95;1.70;;;;;;;18.88;73.45;92921.88;2018374;71;20157;-79
2022/08/21 07:40:41;;;;;;;3.70;2.10;;;;;;;19.10;72.58;92919.75;2018443;71;20166;-79
2022/08/21 07:43:06;;;;;;;2.65;1.67;;;;;;;19.41;73.30;92920.72;2018745;71;20203;-79
2022/08/21 07:45:32;;;;;;;2.70;1.90;;;;;;;19.96;70.85;92923.16;2018882;71;20166;-79
2022/08/21 07:47:58;;;;;;;7.70;3.08;;;;;;;19.98;69.84;92928.94;2018506;71;20157;-77
2022/08/21 07:50:25;;;;;;;3.00;1.63;;;;;;;20.81;65.42;92922.00;2018598;71;20229;-78
2022/08/21 07:52:51;;;;;;;3.58;1.70;;;;;;;21.27;63.81;92915.25;2018525;71;20206;-80
2022/08/21 07:55:19;;;;;;;2.22;1.42;;;;;;;21.33;63.35;92914.69;2019829;71;20574;-77
2022/08/21 07:57:46;;;;;;;2.97;1.33;;;;;;;21.56;62.80;92913.81;2018396;71;20615;-75
2022/08/21 08:00:16;;;;;;;1.67;1.35;;;;;;;21.78;59.34;92913.63;2012943;71;20146;-76
2022/08/21 08:02:46;;;;;;;1.95;1.50;;;;;;;22.27;63.16;92909.69;2018744;71;20203;-76
2022/08/21 08:05:12;;;;;;;2.50;1.42;;;;;;;22.82;59.99;92901.44;2018635;71;20169;-78
2022/08/21 08:07:38;;;;;;;1.55;1.40;;;;;;;22.44;59.53;92905.00;2018826;71;20227;-77
2022/08/21 08:10:07;;;;;;;3.03;1.50;;;;;;;22.65;61.16;92894.66;2018729;71;20614;-76
2022/08/21 08:12:38;;;;;;;2.75;1.38;;;;;;;23.23;59.08;92885.66;2018448;71;20237;-76
2022/08/21 08:15:09;;;;;;;4.10;1.40;;;;;;;23.24;54.87;92881.38;2018499;71;20142;-76
2022/08/21 08:17:34;;;;;;;3.28;1.20;;;;;;;23.62;57.02;92886.25;2018529;71;20146;-76
2022/08/21 08:20:00;;;;;;;4.20;1.40;;;;;;;23.77;56.54;92878.59;2018414;71;20154;-76
2022/08/21 08:22:26;;;;;;;1.67;1.40;;;;;;;24.25;56.90;92878.53;2018420;71;20241;-77
2022/08/21 08:24:53;;;;;;;2.25;1.20;;;;;;;24.34;55.13;92870.75;2014985;71;20157;-77
2022/08/21 08:27:19;;;;;;;1.30;1.10;;;;;;;24.40;54.37;92870.09;2018416;71;20156;-76
2022/08/21 08:29:46;;;;;;;1.45;1.10;;;;;;;25.13;53.12;92875.94;2018566;71;20241;-75
2022/08/21 08:32:11;;;;;;;2.90;1.25;;;;;;;25.71;53.60;92872.09;2014891;71;20154;-75
2022/08/21 08:34:38;;;;;;;2.78;0.98;;;;;;;24.70;48.24;92864.69;2018463;71;20176;-77
2022/08/21 08:37:06;;;;;;;0.80;0.80;;;;;;;24.69;48.57;92863.22;2018374;71;20501;-76
2022/08/21 08:39:32;;;;;;;2.65;1.00;;;;;;;24.65;48.91;92865.34;2018456;71;20158;-77
2022/08/21 08:42:29;;;;;;;4.50;1.30;;;;;;;24.00;50.35;92853.75;2018333;71;20254;-76
2022/08/21 08:45:23;;;;;;;1.58;0.98;;;;;;;24.92;50.15;92860.59;2018365;71;20241;-75
2022/08/21 08:48:04;;;;;;;1.30;1.20;;;;;;;25.01;50.54;92856.34;2015131;71;20305;-76
2022/08/21 08:50:37;;;;;;;4.05;1.25;;;;;;;24.84;48.97;92852.63;2018394;71;20145;-77
2022/08/21 08:53:22;;;;;;;1.23;1.10;;;;;;;25.62;47.97;92854.00;2018474;71;20161;-76
2022/08/21 08:55:51;;;;;;;2.10;1.08;;;;;;;25.65;49.55;92849.69;2015041;71;20241;-76
2022/08/21 08:58:26;;;;;;;2.17;1.10;;;;;;;26.64;49.31;92843.03;2018434;71;20153;-77
2022/08/21 09:00:54;;;;;;;1.50;0.90;;;;;;;26.54;43.62;92840.13;2018459;71;20165;-79
2022/08/21 09:03:24;;;;;;;2.72;1.00;;;;;;;27.00;44.00;92838.78;2018556;71;20237;-77
2022/08/21 09:06:09;;;;;;;3.25;0.90;;;;;;;26.91;44.39;92829.38;2015126;71;20604;-76
2022/08/21 09:09:02;;;;;;;1.33;0.80;;;;;;;27.67;43.08;92829.41;2018392;71;20169;-76
2022/08/21 09:11:53;;;;;;;1.05;0.95;;;;;;;26.56;42.46;92829.28;2018384;71;20188;-78
2022/08/21 09:14:40;;;;;;;1.20;1.00;;;;;;;25.72;43.94;92824.53;2018322;71;20247;-75
2022/08/21 09:17:12;;;;;;;1.00;1.00;;;;;;;26.73;44.64;92818.50;2018609;71;20230;-75
2022/08/21 09:19:49;;;;;;;1.95;0.90;;;;;;;25.55;45.64;92820.81;2018308;71;20328;-76
2022/08/21 09:22:27;;;;;;;1.35;1.00;;;;;;;26.64;44.32;92831.47;2018359;71;20166;-76
2022/08/21 09:25:22;;;;;;;1.33;1.10;;;;;;;26.48;45.31;92822.75;2018377;71;20205;-76
2022/08/21 09:27:48;;;;;;;1.75;1.20;;;;;;;26.53;45.00;92818.47;2016579;71;20197;-76
2022/08/21 09:30:14;;;;;;;0.95;0.93;;;;;;;27.14;44.63;92815.00;2014815;71;20504;-76
2022/08/21 09:32:40;;;;;;;1.95;0.90;;;;;;;28.08;45.00;92822.13;2018438;71;20166;-80
2022/08/21 09:35:13;;;;;;;2.53;0.90;;;;;;;27.25;41.55;92810.66;2018309;71;20378;-77
2022/08/21 09:37:59;;;;;;;1.73;0.90;;;;;;;27.29;41.19;92819.31;2018310;71;20241;-78
2022/08/21 09:40:33;;;;;;;1.83;0.80;;;;;;;28.16;40.32;92809.81;2018278;71;20690;-79
2022/08/21 09:43:03;;;;;;;1.00;0.90;;;;;;;27.71;39.23;92809.88;2018190;71;20141;-80
2022/08/21 09:45:30;;;;;;;0.80;0.80;;;;;;;27.45;42.09;92807.03;2017815;71;20146;-76
2022/08/21 09:47:55;;;;;;;1.35;0.80;;;;;;;27.71;39.85;92798.31;2018361;71;20219;-78
2022/08/21 09:50:25;;;;;;;1.63;0.88;;;;;;;28.42;41.37;92799.63;2018274;71;20161;-78
2022/08/21 09:52:59;;;;;;;2.15;1.02;;;;;;;28.52;39.05;92800.28;2018317;71;20526;-76
2022/08/21 09:58:31;;;;;;;1.13;0.90;;;;;;;28.57;38.98;92798.78;2018323;71;20153;-79
2022/08/21 10:01:02;;;;;;;2.08;0.90;;;;;;;28.70;40.55;92799.47;2018264;71;20683;-79
2022/08/21 10:03:28;;;;;;;3.40;0.93;;;;;;;28.42;40.03;92793.81;2018226;71;20182;-77
2022/08/21 10:06:08;;;;;;;1.77;1.20;;;;;;;27.66;40.64;92790.38;2018250;71;20508;-77
2022/08/21 10:08:36;;;;;;;1.17;1.02;;;;;;;28.54;39.61;92794.47;2018509;71;20301;-76
2022/08/21 10:11:07;;;;;;;1.33;0.90;;;;;;;29.09;39.07;92779.69;2018300;71;20315;-76
2022/08/21 10:13:57;;;;;;;0.77;0.77;;;;;;;29.00;37.39;92781.19;2018064;71;20149;-76
2022/08/21 10:16:47;;;;;;;1.52;1.00;;;;;;;28.52;38.56;92782.19;2018241;71;20306;-76
2022/08/21 10:19:16;;;;;;;0.88;0.88;;;;;;;29.28;38.60;92779.53;2018217;71;20583;-79
2022/08/21 10:22:20;;;;;;;1.35;0.88;;;;;;;30.61;34.73;92785.41;2018227;71;20589;-77
2022/08/21 10:25:25;;;;;;;1.75;0.90;;;;;;;31.36;36.59;92780.72;2014675;71;20149;-79
2022/08/21 10:28:10;;;;;;;1.08;0.77;;;;;;;31.38;35.13;92774.16;2018174;71;20261;-78
2022/08/21 10:30:47;;;;;;;1.33;0.95;;;;;;;31.65;33.70;92780.25;2018231;71;20145;-76
2022/08/21 10:33:18;;;;;;;4.55;0.90;;;;;;;31.96;33.03;92776.81;2018216;71;20160;-78
2022/08/21 10:35:51;;;;;;;1.10;0.88;;;;;;;32.06;33.30;92770.81;2018100;71;20152;-76
2022/08/21 10:38:38;;;;;;;1.17;0.80;;;;;;;31.76;33.09;92769.16;2018313;71;20645;-78
2022/08/21 10:41:13;;;;;;;1.23;0.70;;;;;;;31.59;32.09;92766.53;2018104;71;20596;-78
2022/08/21 10:44:06;;;;;;;0.70;0.70;;;;;;;33.19;32.03;92757.56;2018126;71;20153;-79
2022/08/21 10:46:50;;;;;;;1.98;0.68;;;;;;;33.12;29.83;92766.41;2018415;71;20162;-79
2022/08/21 10:49:43;;;;;;;0.93;0.70;;;;;;;33.27;30.12;92758.06;2018232;71;20150;-78
2022/08/21 10:52:36;;;;;;;0.68;0.68;;;;;;;34.36;28.79;92758.94;2018295;71;20480;-77
2022/08/21 10:55:33;;;;;;;1.52;0.65;;;;;;;36.22;27.57;92770.75;2018257;71;20573;-75
2022/08/21 10:58:09;;;;;;;1.33;0.60;;;;;;;37.03;26.46;92770.75;2017917;71;20178;-78
2022/08/21 11:00:44;;;;;;;0.95;0.50;;;;;;;37.39;23.17;92762.75;2018215;71;20185;-77
2022/08/21 11:03:25;;;;;;;0.95;0.60;;;;;;;37.46;22.85;92756.63;2018163;71;20594;-77
2022/08/21 11:06:02;;;;;;;0.55;0.45;;;;;;;41.42;20.31;92762.13;2018183;71;20177;-78
2022/08/21 11:08:33;;;;;;;1.10;0.65;;;;;;;40.83;20.33;92751.28;2018249;71;20185;-77
2022/08/21 11:11:05;;;;;;;0.90;0.43;;;;;;;42.49;18.85;92751.53;2018206;71;20599;-78
2022/08/21 11:13:40;;;;;;;1.23;0.50;;;;;;;45.63;16.68;92760.50;2015502;71;20158;-76
2022/08/21 11:16:20;;;;;;;1.42;0.65;;;;;;;45.30;15.09;92749.53;2014166;71;20165;-76
2022/08/21 11:18:53;;;;;;;0.60;0.30;;;;;;;46.90;14.62;92765.25;2014357;71;20308;-75
2022/08/21 11:21:42;;;;;;;0.90;0.50;;;;;;;46.66;14.38;92758.91;2014422;71;20560;-76
2022/08/21 11:24:44;;;;;;;2.28;0.70;;;;;;;47.93;13.66;92756.31;2013722;71;20198;-76
2022/08/21 11:27:28;;;;;;;;;;;;;;;46.28;14.68;92752.06;2011043;71;20229;-76
2022/08/21 11:29:58;;;;;;;1.67;0.50;;;;;;;47.33;13.41;92747.72;2014022;71;20050;-75
2022/08/21 11:32:24;;;;;;;1.85;0.80;;;;;;;49.15;12.82;92747.63;2010793;71;20169;-80
2022/08/21 11:35:14;;;;;;;1.33;0.60;;;;;;;44.96;14.27;92735.56;2014350;71;20258;-75
2022/08/21 11:37:49;;;;;;;1.10;0.40;;;;;;;45.45;14.83;92735.09;2014276;71;20162;-76
2022/08/21 11:40:36;;;;;;;1.50;0.50;;;;;;;48.57;11.90;92737.56;2014334;71;20194;-77
2022/08/21 11:43:22;;;;;;;0.93;0.50;;;;;;;49.40;12.36;92734.94;2013947;71;20215;-76
2022/08/21 11:45:51;;;;;;;1.08;0.50;;;;;;;47.34;11.82;92726.00;2013909;71;20150;-76
2022/08/21 11:48:48;;;;;;;2.70;0.65;;;;;;;47.09;11.58;92723.53;2014356;71;20206;-77
2022/08/21 11:51:20;;;;;;;4.18;0.63;;;;;;;49.57;12.26;92722.94;2014467;71;20158;-77